Time;durP1;ratioP1;P1;durP2;ratioP2;P2;SDS_P1;SDS_P2;PMS_P1;PMS_P2;Temp;Humidity;BMP_temperature;BMP_pressure;BME280_temperature;BME280_humidity;BME280_pressure;Samples;Min_cycle;Max_cycle;Signal;HPM_P1;HPM_P2
2023/09/30 00:01:11;;;;;;;17.75;12.15;;;11.90;99.90;;;;;;5079999;28;20087;-77
2023/09/30 00:03:38;;;;;;;19.50;15.65;;;11.90;99.90;;;;;;5078101;28;20052;-76
2023/09/30 00:06:06;;;;;;;23.60;17.38;;;11.90;99.90;;;;;;5077027;28;20372;-78
2023/09/30 00:08:35;;;;;;;16.42;11.55;;;11.80;99.90;;;;;;5076349;28;20040;-78
2023/09/30 00:11:04;;;;;;;20.23;12.50;;;11.80;99.90;;;;;;5078604;28;20585;-76
2023/09/30 00:13:31;;;;;;;20.08;13.23;;;11.80;99.90;;;;;;5080979;28;20089;-78
2023/09/30 00:15:59;;;;;;;17.60;12.88;;;11.80;99.90;;;;;;5076206;28;20122;-76
2023/09/30 00:18:27;;;;;;;16.92;13.50;;;11.80;99.90;;;;;;5077213;28;20416;-79
2023/09/30 00:20:54;;;;;;;18.70;13.48;;;11.70;99.90;;;;;;5077627;28;20055;-76
2023/09/30 00:23:22;;;;;;;16.58;13.05;;;11.70;99.90;;;;;;5077510;28;20036;-78
2023/09/30 00:25:51;;;;;;;18.25;13.45;;;11.70;99.90;;;;;;5077531;28;20289;-77
2023/09/30 00:28:18;;;;;;;21.88;12.93;;;11.50;99.90;;;;;;5075373;28;20044;-79
2023/09/30 00:30:47;;;;;;;14.93;11.93;;;11.50;99.90;;;;;;5073303;28;20127;-76
2023/09/30 00:33:15;;;;;;;15.90;10.90;;;11.50;99.90;;;;;;5083913;28;20036;-76
2023/09/30 00:35:43;;;;;;;13.38;10.93;;;11.50;99.90;;;;;;5100330;28;20052;-77
2023/09/30 00:38:10;;;;;;;16.77;11.73;;;11.60;99.90;;;;;;5099655;28;20056;-78
2023/09/30 00:40:38;;;;;;;15.70;10.85;;;11.60;99.90;;;;;;5096035;28;20044;-76
2023/09/30 00:43:07;;;;;;;14.35;10.40;;;11.60;99.90;;;;;;5078007;28;20411;-77
2023/09/30 00:45:35;;;;;;;19.05;11.32;;;11.60;99.90;;;;;;5074011;28;20090;-78
2023/09/30 00:48:03;;;;;;;23.73;11.15;;;11.50;99.90;;;;;;5072963;28;20519;-77
2023/09/30 00:50:30;;;;;;;17.42;11.30;;;11.50;99.90;;;;;;5074683;28;20059;-79
2023/09/30 00:52:58;;;;;;;18.48;12.63;;;11.50;99.90;;;;;;5070296;28;20054;-77
2023/09/30 00:55:25;;;;;;;17.02;11.85;;;11.40;99.90;;;;;;5070311;28;20139;-77
2023/09/30 00:57:53;;;;;;;16.23;12.73;;;11.40;99.90;;;;;;5069050;28;20036;-78
2023/09/30 01:00:22;;;;;;;17.48;13.23;;;11.40;99.90;;;;;;5068703;28;20040;-77
2023/09/30 01:02:52;;;;;;;13.40;10.77;;;11.40;99.90;;;;;;5069411;28;20048;-76
2023/09/30 01:05:20;;;;;;;14.65;11.65;;;11.40;99.90;;;;;;5071579;28;20047;-77
2023/09/30 01:07:48;;;;;;;15.00;11.48;;;11.30;99.90;;;;;;5070673;28;20047;-77
2023/09/30 01:10:15;;;;;;;16.20;10.95;;;11.30;99.90;;;;;;5071635;28;20546;-77
2023/09/30 01:12:43;;;;;;;14.50;10.00;;;11.20;99.90;;;;;;5072166;28;20048;-78
2023/09/30 01:15:10;;;;;;;15.45;10.88;;;11.20;99.90;;;;;;5069870;28;20344;-78
2023/09/30 01:17:39;;;;;;;14.70;10.82;;;11.20;99.90;;;;;;5070123;28;20044;-78
2023/09/30 01:20:08;;;;;;;14.77;11.40;;;11.20;99.90;;;;;;5076932;28;20321;-77
2023/09/30 01:22:37;;;;;;;16.10;11.15;;;11.20;99.90;;;;;;5077847;28;20484;-77
2023/09/30 01:25:06;;;;;;;14.68;10.23;;;11.20;99.90;;;;;;5078002;28;20446;-78
2023/09/30 01:27:34;;;;;;;15.45;10.90;;;11.30;99.90;;;;;;5077883;28;20044;-78
2023/09/30 01:30:02;;;;;;;15.93;10.30;;;11.20;99.90;;;;;;5075420;28;20036;-78
2023/09/30 01:32:29;;;;;;;19.55;10.68;;;11.10;99.90;;;;;;5077405;28;20157;-78
2023/09/30 01:34:57;;;;;;;16.10;10.55;;;11.10;99.90;;;;;;5074376;28;20097;-77
2023/09/30 01:37:27;;;;;;;15.77;10.60;;;11.10;99.90;;;;;;5073488;28;20041;-78
2023/09/30 01:39:56;;;;;;;14.30;10.18;;;11.00;99.90;;;;;;5074342;28;20044;-78
2023/09/30 01:42:23;;;;;;;13.80;10.07;;;11.00;99.90;;;;;;5074857;28;20052;-77
2023/09/30 01:44:50;;;;;;;15.38;10.55;;;11.00;99.90;;;;;;5070704;28;20048;-78
2023/09/30 01:47:18;;;;;;;14.27;11.02;;;10.90;99.90;;;;;;5073178;28;20472;-77
2023/09/30 01:49:45;;;;;;;16.40;12.48;;;10.90;99.90;;;;;;5072780;28;20044;-78
2023/09/30 01:52:13;;;;;;;21.60;12.38;;;10.90;99.90;;;;;;5070889;28;20094;-78
2023/09/30 01:54:40;;;;;;;20.00;12.43;;;10.80;99.90;;;;;;5070847;28;20455;-78
2023/09/30 01:57:09;;;;;;;13.45;11.30;;;10.70;99.90;;;;;;5070470;28;20553;-78
2023/09/30 01:59:37;;;;;;;16.05;11.25;;;10.60;99.90;;;;;;5072217;28;20505;-76
2023/09/30 02:02:04;;;;;;;17.13;11.00;;;10.60;99.90;;;;;;5070962;28;20496;-78
2023/09/30 02:04:31;;;;;;;14.77;10.60;;;10.50;99.90;;;;;;5071163;28;20049;-78
2023/09/30 02:06:59;;;;;;;13.85;9.82;;;10.50;99.90;;;;;;5071548;28;20040;-76
2023/09/30 02:09:28;;;;;;;17.02;11.13;;;10.60;99.90;;;;;;5070058;28;20059;-77
2023/09/30 02:11:55;;;;;;;14.77;10.43;;;10.60;99.90;;;;;;5073831;28;20518;-76
2023/09/30 02:14:24;;;;;;;16.67;10.95;;;10.60;99.90;;;;;;5076324;28;20045;-78
2023/09/30 02:16:51;;;;;;;16.92;11.02;;;10.60;99.90;;;;;;5073837;28;20044;-78
2023/09/30 02:19:21;;;;;;;18.17;10.60;;;10.60;99.90;;;;;;5070293;28;20068;-77
2023/09/30 02:21:48;;;;;;;14.48;10.40;;;10.60;99.90;;;;;;5070176;28;20564;-78
2023/09/30 02:24:16;;;;;;;15.75;10.90;;;10.50;99.90;;;;;;5071625;28;20048;-77
2023/09/30 02:26:43;;;;;;;13.93;10.23;;;10.50;99.90;;;;;;5073114;28;20041;-78
2023/09/30 02:29:10;;;;;;;15.90;10.65;;;10.50;99.90;;;;;;5077718;28;20048;-78
2023/09/30 02:31:39;;;;;;;18.65;11.05;;;10.60;99.90;;;;;;5076766;28;20092;-78
2023/09/30 02:34:08;;;;;;;14.30;10.10;;;10.60;99.90;;;;;;5079169;28;20039;-76
2023/09/30 02:36:39;;;;;;;14.98;9.77;;;10.50;99.90;;;;;;5078896;28;20508;-78
2023/09/30 02:39:08;;;;;;;16.65;10.55;;;10.50;99.90;;;;;;5078844;28;20105;-77
2023/09/30 02:41:37;;;;;;;15.85;10.75;;;10.50;99.90;;;;;;5080479;28;20059;-77
2023/09/30 02:44:06;;;;;;;17.58;10.77;;;10.60;99.90;;;;;;5075703;28;20699;-78
2023/09/30 02:46:33;;;;;;;14.40;10.18;;;10.60;99.90;;;;;;5080998;28;20052;-76
2023/09/30 02:49:03;;;;;;;17.30;10.63;;;10.50;99.90;;;;;;5078258;28;20048;-77
2023/09/30 02:51:32;;;;;;;14.68;10.55;;;10.50;99.90;;;;;;5076385;28;20040;-77
2023/09/30 02:53:59;;;;;;;15.13;10.70;;;10.50;99.90;;;;;;5076170;28;20688;-77
2023/09/30 02:56:30;;;;;;;16.30;10.15;;;10.50;99.90;;;;;;5075880;28;20048;-76
2023/09/30 02:58:57;;;;;;;19.85;11.00;;;10.50;99.90;;;;;;5073456;28;20565;-77
2023/09/30 03:01:26;;;;;;;17.77;9.93;;;10.40;99.90;;;;;;5073524;28;20048;-77
2023/09/30 03:03:53;;;;;;;15.18;10.50;;;10.40;99.90;;;;;;5074082;28;20095;-75
2023/09/30 03:06:22;;;;;;;16.15;10.20;;;10.40;99.90;;;;;;5073574;28;20128;-76
2023/09/30 03:08:49;;;;;;;17.20;10.23;;;10.40;99.90;;;;;;5073551;28;20047;-77
2023/09/30 03:11:17;;;;;;;12.10;9.32;;;10.30;99.90;;;;;;5073589;28;20048;-77
2023/09/30 03:13:44;;;;;;;12.63;9.85;;;10.30;99.90;;;;;;5073886;28;20037;-76
2023/09/30 03:16:11;;;;;;;15.00;10.20;;;10.40;99.90;;;;;;5073752;28;20067;-77
2023/09/30 03:18:40;;;;;;;17.65;10.05;;;10.30;99.90;;;;;;5074179;28;20109;-77
2023/09/30 03:21:16;;;;;;;14.40;10.52;;;10.30;99.90;;;;;;5071444;28;20508;-78
2023/09/30 03:23:45;;;;;;;16.25;9.82;;;10.30;99.90;;;;;;5073667;28;20038;-79
2023/09/30 03:26:12;;;;;;;14.50;10.20;;;10.20;99.90;;;;;;5073075;28;20488;-79
2023/09/30 03:28:40;;;;;;;14.90;10.13;;;10.20;99.90;;;;;;5072180;28;20097;-78
2023/09/30 03:31:07;;;;;;;11.63;10.07;;;10.20;99.90;;;;;;5071563;28;20771;-77
2023/09/30 03:33:35;;;;;;;13.68;10.43;;;10.10;99.90;;;;;;5073046;28;20052;-78
2023/09/30 03:36:03;;;;;;;14.20;9.80;;;10.10;99.90;;;;;;5074430;28;20174;-78
2023/09/30 03:38:32;;;;;;;11.77;9.43;;;10.00;99.90;;;;;;5071093;28;20114;-78
2023/09/30 03:41:01;;;;;;;13.32;10.13;;;10.20;99.90;;;;;;5075056;28;20044;-78
2023/09/30 03:43:28;;;;;;;12.13;9.05;;;10.30;99.90;;;;;;5075390;28;20045;-77
2023/09/30 03:45:57;;;;;;;12.13;8.90;;;10.40;99.90;;;;;;5081804;28;20040;-77
2023/09/30 03:48:24;;;;;;;12.32;8.85;;;10.40;99.90;;;;;;5077717;28;20032;-78
2023/09/30 04:03:45;;;;;;;;;;;;;;;;;;;;;
2023/09/30 04:06:42;;;;;;;15.85;10.77;;;10.00;99.90;;;;;;4808411;29;20076;-84
2023/09/30 04:09:49;;;;;;;15.70;12.27;;;10.00;99.90;;;;;;4806212;29;20126;-81
2023/09/30 04:12:39;;;;;;;14.70;10.57;;;10.00;99.90;;;;;;4810168;29;20571;-81
2023/09/30 06:26:02;;;;;;;28.13;18.90;;;13.40;1.00;;;;;;6213357;23;20996;-81
2023/09/30 07:28:47;;;;;;;23.88;13.93;;;17.20;5.80;;;;;;6210736;22;20105;-86
2023/09/30 07:31:29;;;;;;;16.08;9.43;;;17.30;1.00;;;;;;6248883;23;20016;-85
2023/09/30 07:34:33;;;;;;;15.98;8.73;;;17.50;1.00;;;;;;6242978;23;20027;-83
2023/09/30 07:37:04;;;;;;;18.45;9.48;;;17.70;99.90;;;;;;6123631;23;20017;-86
2023/09/30 07:39:38;;;;;;;15.68;9.20;;;17.80;3.80;;;;;;6230540;22;20028;-85
2023/09/30 07:42:17;;;;;;;21.58;12.00;;;17.90;1.00;;;;;;6244523;22;20456;-83
2023/09/30 07:48:52;;;;;;;33.30;18.88;;;17.90;1.00;;;;;;6081982;23;20029;-81
2023/09/30 07:54:27;;;;;;;19.15;11.80;;;18.30;1.00;;;;;;6152188;23;20382;-81
2023/09/30 08:03:52;;;;;;;20.40;11.00;;;18.80;1.00;;;;;;6155033;23;20020;-84
2023/09/30 08:14:38;;;;;;;18.23;11.13;;;19.10;1.00;;;;;;5993118;23;20021;-81
2023/09/30 08:17:11;;;;;;;19.25;11.80;;;19.30;99.90;;;;;;6137820;23;20048;-83
2023/09/30 08:19:40;;;;;;;28.85;13.88;;;19.50;99.90;;;;;;6183058;23;20056;-82
2023/09/30 08:22:09;;;;;;;24.33;13.45;;;19.60;99.90;;;;;;6181431;23;20013;-81
2023/09/30 08:24:41;;;;;;;26.98;14.20;;;19.60;99.90;;;;;;6170908;23;20086;-80
2023/09/30 08:27:11;;;;;;;21.63;13.32;;;19.80;99.90;;;;;;6195918;23;20109;-80
2023/09/30 08:29:39;;;;;;;22.70;13.90;;;19.90;99.90;;;;;;6241996;22;20057;-80
2023/09/30 08:32:07;;;;;;;18.67;12.32;;;20.00;99.90;;;;;;6290683;22;20125;-81
2023/09/30 08:34:34;;;;;;;17.35;10.45;;;20.10;99.90;;;;;;6258346;22;20070;-81
2023/09/30 08:37:01;;;;;;;29.35;15.98;;;20.10;99.90;;;;;;6297478;22;20031;-82
2023/09/30 08:39:30;;;;;;;20.52;11.63;;;20.20;99.90;;;;;;6279279;22;20051;-82
2023/09/30 08:42:03;;;;;;;19.90;10.32;;;20.30;99.90;;;;;;6275366;22;20024;-80
2023/09/30 08:44:31;;;;;;;19.42;9.95;;;20.40;59.70;;;;;;6245786;22;20023;-80
2023/09/30 08:46:59;;;;;;;23.48;12.15;;;20.40;69.60;;;;;;6280446;22;20109;-80
2023/09/30 08:49:28;;;;;;;18.17;11.45;;;20.40;95.40;;;;;;6284171;22;20337;-79
2023/09/30 08:51:59;;;;;;;24.67;17.45;;;20.40;96.40;;;;;;6288152;22;20015;-80
2023/09/30 08:54:27;;;;;;;18.50;10.05;;;20.40;96.70;;;;;;6278578;22;20024;-81
2023/09/30 08:56:56;;;;;;;20.98;12.40;;;20.60;71.70;;;;;;6277599;22;20070;-81
2023/09/30 08:59:25;;;;;;;18.42;9.43;;;20.60;69.40;;;;;;6277277;22;20027;-77
2023/09/30 09:06:02;;;;;;;28.42;19.38;;;20.50;47.40;;;;;;6193189;23;20020;-83
2023/09/30 09:08:32;;;;;;;15.85;10.00;;;20.80;18.40;;;;;;6233198;22;20035;-84
2023/09/30 09:11:04;;;;;;;24.67;12.75;;;20.80;13.60;;;;;;6245836;22;20028;-84
2023/09/30 09:13:49;;;;;;;24.63;14.73;;;20.90;21.20;;;;;;6245098;22;20020;-84
2023/09/30 09:16:20;;;;;;;16.55;8.57;;;21.10;18.70;;;;;;6283446;22;20090;-82
2023/09/30 09:19:26;;;;;;;28.10;16.30;;;21.20;4.40;;;;;;6244391;22;20106;-82
2023/09/30 09:25:19;;;;;;;26.83;10.77;;;21.40;1.00;;;;;;6186486;22;20483;-82
2023/09/30 09:28:03;;;;;;;31.15;16.00;;;21.50;1.00;;;;;;6272940;22;20341;-84
2023/09/30 09:34:32;;;;;;;19.83;8.25;;;21.40;1.00;;;;;;6228943;22;20397;-83
2023/09/30 09:37:36;;;;;;;19.17;11.38;;;21.40;1.00;;;;;;6248073;22;20023;-83
2023/09/30 09:40:11;;;;;;;13.60;6.40;;;21.30;1.00;;;;;;6261030;22;20081;-81
2023/09/30 09:42:43;;;;;;;18.42;8.68;;;21.40;1.00;;;;;;6249004;22;20038;-82
2023/09/30 09:45:18;;;;;;;46.95;32.05;;;21.50;1.00;;;;;;6282567;22;20016;-80
2023/09/30 09:47:48;;;;;;;18.58;11.13;;;21.60;1.00;;;;;;6251651;22;20032;-82
2023/09/30 09:50:25;;;;;;;22.90;9.00;;;21.80;1.00;;;;;;6283892;22;20056;-83
2023/09/30 09:52:54;;;;;;;14.32;8.50;;;21.90;1.00;;;;;;6250431;22;20019;-81
2023/09/30 09:58:21;;;;;;;17.90;8.25;;;21.90;1.00;;;;;;6253854;22;20028;-83
2023/09/30 10:00:57;;;;;;;17.45;9.90;;;22.00;1.00;;;;;;6255700;22;20012;-82
2023/09/30 10:03:25;;;;;;;18.27;10.93;;;22.10;1.00;;;;;;6278535;22;20051;-84
2023/09/30 10:05:53;;;;;;;16.33;10.20;;;22.20;1.00;;;;;;6248779;22;20028;-81
2023/09/30 10:08:23;;;;;;;19.25;10.93;;;22.30;1.00;;;;;;6248019;22;20039;-84
2023/09/30 10:10:51;;;;;;;14.75;7.80;;;22.40;1.00;;;;;;6284198;22;20028;-81
2023/09/30 10:14:00;;;;;;;19.25;8.98;;;22.50;1.00;;;;;;6248317;22;20039;-82
2023/09/30 10:16:51;;;;;;;19.50;8.02;;;22.40;1.00;;;;;;6288312;22;20042;-82
2023/09/30 10:19:24;;;;;;;24.50;8.57;;;22.50;1.00;;;;;;6222505;22;20051;-81
2023/09/30 10:22:23;;;;;;;29.02;11.45;;;22.50;1.00;;;;;;6285923;22;20059;-80
2023/09/30 10:24:53;;;;;;;17.00;9.90;;;22.70;1.00;;;;;;6247679;22;20031;-79
2023/09/30 10:27:34;;;;;;;18.92;9.32;;;22.90;1.00;;;;;;6281573;22;20015;-77
2023/09/30 10:30:13;;;;;;;22.40;10.80;;;23.00;1.00;;;;;;6277384;22;20051;-80
2023/09/30 10:33:21;;;;;;;21.30;9.60;;;23.10;1.00;;;;;;6279802;22;20072;-79
2023/09/30 10:35:53;;;;;;;19.45;8.32;;;23.20;1.00;;;;;;6281112;22;20023;-82
2023/09/30 10:38:42;;;;;;;22.30;9.25;;;23.30;1.00;;;;;;6286214;22;20043;-83
2023/09/30 10:41:11;;;;;;;19.08;8.65;;;23.40;1.00;;;;;;6285854;22;20027;-81
2023/09/30 10:43:41;;;;;;;17.95;7.55;;;23.50;1.00;;;;;;6256391;22;20027;-81
2023/09/30 10:46:35;;;;;;;14.00;8.10;;;23.70;1.00;;;;;;6251179;22;20070;-80
2023/09/30 10:49:35;;;;;;;13.82;8.40;;;23.70;1.00;;;;;;6212739;22;20047;-81
2023/09/30 10:52:04;;;;;;;18.75;10.25;;;23.90;1.00;;;;;;6250162;22;20070;-79
2023/09/30 10:54:33;;;;;;;15.23;9.18;;;24.00;1.00;;;;;;6250423;22;20023;-80
2023/09/30 10:57:03;;;;;;;14.68;8.27;;;24.40;1.00;;;;;;6250300;22;20069;-81
2023/09/30 10:59:32;;;;;;;15.35;8.07;;;24.70;1.00;;;;;;6286406;22;20043;-80
2023/09/30 11:01:59;;;;;;;12.40;7.68;;;24.80;1.00;;;;;;6291253;22;20023;-78
2023/09/30 11:04:28;;;;;;;16.45;8.23;;;24.70;1.00;;;;;;6266095;22;20026;-80
2023/09/30 11:06:57;;;;;;;17.95;8.15;;;24.90;1.00;;;;;;6298141;22;20396;-80
2023/09/30 11:09:26;;;;;;;17.88;8.70;;;24.70;1.00;;;;;;6269745;22;20011;-81
2023/09/30 11:11:54;;;;;;;18.92;9.10;;;24.60;1.00;;;;;;6300764;22;20091;-81
2023/09/30 11:14:23;;;;;;;15.88;8.30;;;24.40;1.00;;;;;;6304095;22;20038;-80
2023/09/30 11:16:52;;;;;;;17.42;9.27;;;24.40;1.00;;;;;;6270675;22;20020;-80
2023/09/30 11:19:20;;;;;;;24.00;12.93;;;24.40;1.00;;;;;;6306707;22;20083;-78
2023/09/30 11:21:49;;;;;;;22.33;15.02;;;24.50;1.00;;;;;;6267925;22;20027;-78
2023/09/30 11:24:17;;;;;;;16.20;11.25;;;24.70;1.00;;;;;;6293890;22;20023;-81
2023/09/30 11:26:46;;;;;;;16.77;8.90;;;24.90;1.00;;;;;;6299261;22;20077;-80
2023/09/30 11:29:15;;;;;;;17.48;8.60;;;25.00;1.00;;;;;;6300292;22;20175;-82
2023/09/30 11:31:44;;;;;;;16.05;8.68;;;25.00;1.00;;;;;;6301952;22;20020;-82
2023/09/30 11:34:12;;;;;;;21.25;10.05;;;25.10;1.00;;;;;;6288481;22;20083;-81
2023/09/30 11:36:42;;;;;;;19.58;10.60;;;25.10;1.00;;;;;;6283888;22;20061;-80
2023/09/30 11:39:10;;;;;;;17.13;9.70;;;25.10;1.00;;;;;;6273639;22;20078;-81
2023/09/30 11:41:41;;;;;;;11.15;6.78;;;25.30;1.00;;;;;;6275981;22;20051;-79
2023/09/30 11:44:17;;;;;;;20.98;8.45;;;25.40;1.00;;;;;;6244130;22;20027;-79
2023/09/30 11:46:53;;;;;;;18.27;9.10;;;25.50;1.00;;;;;;6280075;22;20451;-79
2023/09/30 11:49:32;;;;;;;17.40;10.88;;;25.50;1.00;;;;;;6280662;22;20456;-81
2023/09/30 11:52:01;;;;;;;15.30;9.20;;;25.60;1.00;;;;;;6282289;22;20046;-80
2023/09/30 11:54:32;;;;;;;13.25;8.45;;;25.70;1.00;;;;;;6271789;22;20427;-80
2023/09/30 11:57:00;;;;;;;18.00;10.52;;;25.80;1.00;;;;;;6274461;22;20031;-80
2023/09/30 11:59:29;;;;;;;24.20;11.55;;;25.90;1.00;;;;;;6277711;22;20081;-79
2023/09/30 12:01:56;;;;;;;19.17;8.32;;;26.00;1.00;;;;;;6280166;22;20035;-81
2023/09/30 12:04:24;;;;;;;15.18;9.52;;;25.90;1.00;;;;;;6280880;22;20016;-80
2023/09/30 12:06:51;;;;;;;17.77;9.60;;;26.00;1.00;;;;;;6281847;22;20086;-80
2023/09/30 12:09:22;;;;;;;14.27;8.25;;;26.00;1.00;;;;;;6271323;22;20027;-80
2023/09/30 12:11:50;;;;;;;12.38;8.75;;;25.80;1.00;;;;;;6275231;22;20434;-82
2023/09/30 12:14:17;;;;;;;11.52;6.30;;;25.70;1.00;;;;;;6280436;22;20039;-80
2023/09/30 12:16:47;;;;;;;10.45;5.60;;;25.40;1.00;;;;;;6249761;22;20034;-80
2023/09/30 12:19:15;;;;;;;13.63;6.57;;;25.20;1.00;;;;;;6249437;22;20039;-80
2023/09/30 12:21:43;;;;;;;13.60;8.50;;;25.20;1.00;;;;;;6284401;22;20081;-79
2023/09/30 12:24:13;;;;;;;12.38;6.10;;;25.10;1.00;;;;;;6273515;22;20154;-80
2023/09/30 12:26:41;;;;;;;11.98;6.32;;;25.10;1.00;;;;;;6274457;22;20107;-80
2023/09/30 12:29:09;;;;;;;14.50;7.22;;;25.10;1.00;;;;;;6277117;22;20397;-79
2023/09/30 12:31:36;;;;;;;13.00;7.47;;;25.00;1.00;;;;;;6279902;22;20020;-81
2023/09/30 12:34:07;;;;;;;13.35;8.45;;;25.20;1.00;;;;;;6281763;22;20016;-81
2023/09/30 12:36:35;;;;;;;8.98;5.95;;;25.40;1.00;;;;;;6243304;22;20034;-79
2023/09/30 12:39:10;;;;;;;9.60;6.00;;;25.40;1.00;;;;;;6276742;22;20027;-81
2023/09/30 12:41:37;;;;;;;9.48;5.47;;;25.40;1.00;;;;;;6273983;22;20098;-81
2023/09/30 12:44:05;;;;;;;9.00;5.93;;;25.40;1.00;;;;;;6244527;22;20027;-82
2023/09/30 12:46:34;;;;;;;9.77;5.40;;;25.40;1.00;;;;;;6244823;22;20020;-81
2023/09/30 12:49:02;;;;;;;8.75;5.38;;;25.40;1.00;;;;;;6282293;22;20018;-81
2023/09/30 12:51:32;;;;;;;9.55;5.43;;;25.40;1.00;;;;;;6275285;22;20047;-80
2023/09/30 12:54:00;;;;;;;9.85;5.63;;;25.40;1.00;;;;;;6272954;22;20530;-81
2023/09/30 12:56:29;;;;;;;9.27;5.10;;;25.20;1.00;;;;;;6245137;22;20051;-82
2023/09/30 12:58:56;;;;;;;12.48;5.97;;;25.10;1.00;;;;;;6279409;22;20020;-81
2023/09/30 13:01:23;;;;;;;9.52;5.70;;;25.20;1.00;;;;;;6249510;22;20054;-80
2023/09/30 13:03:51;;;;;;;9.60;5.60;;;25.10;1.00;;;;;;6248692;22;20043;-80
2023/09/30 13:06:20;;;;;;;8.55;5.70;;;25.10;1.00;;;;;;6244704;22;20047;-79
2023/09/30 13:08:50;;;;;;;8.73;5.80;;;25.00;1.00;;;;;;6246602;22;20420;-79
2023/09/30 13:11:17;;;;;;;13.52;5.78;;;24.90;1.00;;;;;;6276964;22;20413;-81
2023/09/30 13:13:45;;;;;;;15.35;6.90;;;24.90;1.00;;;;;;6280713;22;20016;-81
2023/09/30 13:16:23;;;;;;;11.95;6.20;;;24.90;1.00;;;;;;6246256;22;20030;-80
2023/09/30 13:18:55;;;;;;;9.38;6.03;;;24.80;1.00;;;;;;6272155;22;20019;-79
2023/09/30 13:21:26;;;;;;;9.93;5.72;;;24.70;1.00;;;;;;6273441;22;20038;-80
2023/09/30 13:24:00;;;;;;;10.23;6.65;;;24.60;1.00;;;;;;6253250;22;20019;-79
2023/09/30 13:26:30;;;;;;;8.77;4.70;;;24.50;1.00;;;;;;6236546;22;20023;-79
2023/09/30 13:29:04;;;;;;;11.13;5.38;;;24.40;1.00;;;;;;6258970;22;20024;-80
2023/09/30 13:31:41;;;;;;;9.68;5.18;;;24.40;1.00;;;;;;6234698;22;20500;-80
2023/09/30 13:34:10;;;;;;;11.30;5.35;;;24.30;1.00;;;;;;6289813;22;20424;-80
2023/09/30 13:36:37;;;;;;;7.63;5.00;;;24.30;1.00;;;;;;6242119;22;20074;-79
2023/09/30 13:39:12;;;;;;;9.50;6.00;;;24.30;1.00;;;;;;6274193;22;20413;-81
2023/09/30 13:41:41;;;;;;;7.55;5.20;;;24.40;1.00;;;;;;6275854;22;20407;-82
2023/09/30 13:44:09;;;;;;;9.95;5.10;;;24.40;1.00;;;;;;6244910;22;20027;-81
2023/09/30 13:46:36;;;;;;;6.70;5.40;;;24.50;1.00;;;;;;6281259;22;20032;-83
2023/09/30 13:49:04;;;;;;;9.65;5.22;;;24.50;1.00;;;;;;6292444;22;20023;-82
2023/09/30 13:51:31;;;;;;;8.48;6.43;;;24.50;1.00;;;;;;6296250;22;20060;-84
2023/09/30 13:53:58;;;;;;;10.43;5.95;;;24.40;1.00;;;;;;6282411;22;20024;-83
2023/09/30 13:56:30;;;;;;;8.52;5.10;;;24.50;1.00;;;;;;6277740;22;20372;-80
2023/09/30 13:58:57;;;;;;;11.88;5.57;;;24.50;1.00;;;;;;6270143;22;20491;-79
2023/09/30 14:01:25;;;;;;;7.93;5.30;;;24.50;1.00;;;;;;6243375;22;20357;-79
2023/09/30 14:03:55;;;;;;;9.75;5.32;;;24.50;1.00;;;;;;6282944;22;20406;-79
2023/09/30 14:06:23;;;;;;;10.32;5.53;;;24.50;1.00;;;;;;6272233;22;20459;-78
2023/09/30 14:08:50;;;;;;;10.10;5.60;;;24.50;1.00;;;;;;6274253;22;20475;-78
2023/09/30 14:11:17;;;;;;;12.80;5.45;;;24.50;1.00;;;;;;6277282;22;20027;-80
2023/09/30 14:13:46;;;;;;;7.72;5.13;;;24.50;1.00;;;;;;6279308;22;20339;-83
2023/09/30 14:16:14;;;;;;;10.00;5.32;;;24.50;1.00;;;;;;6244349;22;20416;-79
2023/09/30 14:18:42;;;;;;;11.48;5.78;;;24.50;1.00;;;;;;6281849;22;20020;-81
2023/09/30 14:21:09;;;;;;;12.82;5.32;;;24.50;1.00;;;;;;6273114;22;20099;-81
2023/09/30 14:23:37;;;;;;;9.98;4.82;;;24.40;1.00;;;;;;6246947;22;20074;-79
2023/09/30 14:26:10;;;;;;;8.55;5.40;;;24.40;1.00;;;;;;6278740;22;20443;-83
2023/09/30 14:28:39;;;;;;;7.50;5.18;;;24.40;1.00;;;;;;6279304;22;20681;-81
2023/09/30 14:31:09;;;;;;;10.63;5.40;;;24.40;1.00;;;;;;6244238;22;20115;-80
2023/09/30 14:33:36;;;;;;;12.52;5.45;;;24.40;1.00;;;;;;6270974;22;20096;-79
2023/09/30 14:36:05;;;;;;;12.07;5.53;;;24.40;1.00;;;;;;6243110;22;20027;-79
2023/09/30 14:38:32;;;;;;;12.63;6.32;;;24.30;1.00;;;;;;6268353;22;20023;-77
2023/09/30 14:41:01;;;;;;;12.02;5.80;;;24.30;1.00;;;;;;6243428;22;20012;-78
2023/09/30 14:43:29;;;;;;;12.73;6.40;;;24.30;1.00;;;;;;6270699;22;20016;-77
2023/09/30 14:45:57;;;;;;;11.98;6.38;;;24.30;1.00;;;;;;6274748;22;20104;-81
2023/09/30 14:48:26;;;;;;;10.13;5.93;;;24.30;1.00;;;;;;6271851;22;20034;-79
2023/09/30 14:50:53;;;;;;;12.55;8.77;;;24.20;1.00;;;;;;6274126;22;20023;-78
2023/09/30 14:53:21;;;;;;;9.90;5.80;;;24.10;1.00;;;;;;6277640;22;20022;-80
2023/09/30 14:55:49;;;;;;;14.45;6.30;;;24.10;1.00;;;;;;6243793;22;20122;-79
2023/09/30 14:58:18;;;;;;;9.65;6.70;;;24.00;1.00;;;;;;6242517;22;20021;-81
2023/09/30 15:00:47;;;;;;;11.85;7.32;;;24.00;1.00;;;;;;6244825;22;20401;-79
2023/09/30 15:03:14;;;;;;;11.70;6.03;;;24.00;1.00;;;;;;6272756;22;20035;-79
2023/09/30 15:05:43;;;;;;;11.30;6.85;;;23.90;1.00;;;;;;6249653;22;20016;-78
2023/09/30 15:08:10;;;;;;;13.60;7.78;;;23.90;1.00;;;;;;6277722;22;20043;-80
2023/09/30 15:10:38;;;;;;;17.75;6.80;;;23.90;1.00;;;;;;6279230;22;20027;-79
2023/09/30 15:13:05;;;;;;;14.50;6.57;;;23.90;1.00;;;;;;6280537;22;20012;-80
2023/09/30 15:15:37;;;;;;;11.48;6.40;;;23.90;1.00;;;;;;6269991;22;20043;-80
2023/09/30 15:18:05;;;;;;;11.50;6.45;;;23.70;1.00;;;;;;6271543;22;20563;-78
2023/09/30 15:20:39;;;;;;;8.93;6.65;;;23.60;1.00;;;;;;6275006;22;20074;-78
2023/09/30 15:23:09;;;;;;;12.30;6.20;;;23.50;1.00;;;;;;6242478;22;20024;-78
2023/09/30 15:25:42;;;;;;;12.25;7.03;;;23.50;1.00;;;;;;6278462;22;20064;-81
2023/09/30 15:28:10;;;;;;;13.05;6.70;;;23.40;1.00;;;;;;6282643;22;20090;-82
2023/09/30 15:30:38;;;;;;;13.10;6.75;;;23.40;1.00;;;;;;6243505;22;20020;-82
2023/09/30 15:33:06;;;;;;;9.88;6.45;;;23.30;1.00;;;;;;6230997;22;20051;-82
2023/09/30 15:35:33;;;;;;;9.98;6.13;;;23.20;1.00;;;;;;6242883;22;20054;-84
2023/09/30 15:38:01;;;;;;;14.30;7.05;;;23.10;1.00;;;;;;6277253;22;20024;-80
2023/09/30 15:40:33;;;;;;;11.43;7.43;;;22.90;1.00;;;;;;6279878;22;20511;-82
2023/09/30 15:43:01;;;;;;;14.77;7.50;;;22.90;1.00;;;;;;6244701;22;20019;-80
2023/09/30 15:45:28;;;;;;;14.18;7.60;;;22.80;1.00;;;;;;6243294;22;20047;-81
2023/09/30 15:47:55;;;;;;;11.77;7.00;;;22.80;1.00;;;;;;6273053;22;20356;-81
2023/09/30 15:50:23;;;;;;;13.10;6.60;;;22.70;1.00;;;;;;6242933;22;20028;-78
2023/09/30 15:52:50;;;;;;;10.05;6.43;;;22.60;1.00;;;;;;6241684;22;20022;-75
2023/09/30 15:55:18;;;;;;;12.30;7.65;;;22.50;1.00;;;;;;6228578;23;20099;-75
2023/09/30 15:57:47;;;;;;;11.43;7.10;;;22.30;1.00;;;;;;6266071;23;20016;-76
2023/09/30 16:00:23;;;;;;;16.00;10.93;;;22.30;1.00;;;;;;6246069;23;20453;-77
2023/09/30 16:02:50;;;;;;;;;;;22.20;1.00;;;;;;6220153;23;20062;-77
2023/09/30 16:05:17;;;;;;;13.50;7.35;;;22.10;1.00;;;;;;6261245;23;19938;-77
2023/09/30 16:07:45;;;;;;;11.05;8.77;;;22.00;1.00;;;;;;6227877;23;20024;-76
2023/09/30 16:10:12;;;;;;;12.35;9.35;;;21.80;1.00;;;;;;6266489;23;20009;-75
2023/09/30 16:12:40;;;;;;;23.40;13.27;;;21.70;1.00;;;;;;6258146;23;20032;-76
2023/09/30 16:15:11;;;;;;;29.63;21.70;;;21.50;1.00;;;;;;6259190;23;20028;-76
2023/09/30 16:17:39;;;;;;;45.35;32.33;;;21.30;1.00;;;;;;6224641;23;20387;-76
2023/09/30 16:20:08;;;;;;;50.25;32.75;;;21.10;1.00;;;;;;6264015;23;20082;-77
2023/09/30 16:22:36;;;;;;;35.35;23.27;;;21.00;1.00;;;;;;6259745;23;20133;-78
2023/09/30 16:25:04;;;;;;;32.08;22.00;;;20.80;1.00;;;;;;6257116;23;20020;-79
2023/09/30 16:27:32;;;;;;;30.25;19.73;;;20.60;1.00;;;;;;6229838;23;20035;-77
2023/09/30 16:30:00;;;;;;;31.17;21.48;;;20.50;1.00;;;;;;6255290;23;20023;-76
2023/09/30 16:32:31;;;;;;;36.78;26.10;;;20.40;1.00;;;;;;6230058;23;20044;-77
2023/09/30 16:34:58;;;;;;;38.15;26.02;;;20.30;1.00;;;;;;6262809;23;20016;-76
2023/09/30 16:37:26;;;;;;;38.63;27.73;;;20.10;35.20;;;;;;6224429;23;20048;-76
2023/09/30 16:39:53;;;;;;;31.90;19.98;;;19.90;99.90;;;;;;6254891;23;20012;-76
2023/09/30 16:42:21;;;;;;;33.72;23.58;;;19.70;99.90;;;;;;6245280;23;20095;-76
2023/09/30 16:44:50;;;;;;;38.10;25.58;;;19.60;99.90;;;;;;6228527;23;20023;-75
2023/09/30 16:47:19;;;;;;;28.80;18.23;;;19.50;99.90;;;;;;6265332;23;20028;-77
2023/09/30 16:49:48;;;;;;;52.00;33.08;;;19.40;1.00;;;;;;6267339;23;20082;-76
2023/09/30 16:52:16;;;;;;;50.38;31.60;;;19.50;1.00;;;;;;6269789;23;20008;-76
2023/09/30 16:54:43;;;;;;;46.00;33.05;;;19.40;1.00;;;;;;6271347;22;20027;-75
2023/09/30 16:57:11;;;;;;;47.33;35.65;;;19.40;1.00;;;;;;6262456;23;20024;-75